Time;durP1;ratioP1;P1;durP2;ratioP2;P2;SDS_P1;SDS_P2;PMS_P1;PMS_P2;Temp;Humidity;BMP_temperature;BMP_pressure;BME280_temperature;BME280_humidity;BME280_pressure;Samples;Min_cycle;Max_cycle;Signal;HPM_P1;HPM_P2
2022/11/02 00:01:52;;;;;;;4.37;3.17;;;8.70;99.90;;;;;;5075298;28;20244;-59
2022/11/02 00:04:19;;;;;;;4.73;3.20;;;8.70;99.90;;;;;;5075291;28;20208;-58
2022/11/02 00:06:46;;;;;;;3.60;2.93;;;8.50;99.90;;;;;;5074620;28;20220;-58
2022/11/02 00:09:14;;;;;;;8.37;3.27;;;8.40;99.90;;;;;;5075099;28;20224;-58
2022/11/02 00:11:41;;;;;;;6.87;3.37;;;8.30;99.90;;;;;;5074839;28;20735;-59
2022/11/02 00:14:07;;;;;;;3.67;2.70;;;8.30;99.90;;;;;;5075226;28;20209;-59
2022/11/02 00:16:39;;;;;;;4.63;3.00;;;8.20;99.90;;;;;;5074558;28;20211;-58
2022/11/02 00:19:06;;;;;;;6.40;3.00;;;8.20;99.90;;;;;;5075202;28;20212;-58
2022/11/02 00:21:34;;;;;;;4.97;2.80;;;8.10;99.90;;;;;;5074777;28;20712;-58
2022/11/02 00:24:01;;;;;;;4.23;3.10;;;8.10;99.90;;;;;;5074834;28;20228;-58
2022/11/02 00:26:29;;;;;;;8.07;2.80;;;8.00;99.90;;;;;;5074038;28;20220;-58
2022/11/02 00:28:56;;;;;;;8.07;2.83;;;8.00;99.90;;;;;;5074827;28;20279;-58
2022/11/02 00:31:22;;;;;;;5.30;3.13;;;7.90;99.90;;;;;;5074690;28;20233;-57
2022/11/02 00:33:49;;;;;;;5.70;2.73;;;8.00;99.90;;;;;;5074720;28;20200;-58
2022/11/02 00:36:16;;;;;;;5.93;3.23;;;8.00;99.90;;;;;;5074161;28;20610;-58
2022/11/02 00:38:43;;;;;;;5.70;3.07;;;8.00;99.90;;;;;;5074586;28;20197;-58
2022/11/02 00:41:11;;;;;;;4.47;2.77;;;8.00;99.90;;;;;;5074442;28;20233;-59
2022/11/02 00:43:39;;;;;;;5.93;2.70;;;8.00;99.90;;;;;;5074656;28;20270;-58
2022/11/02 00:46:06;;;;;;;4.47;2.70;;;8.00;99.90;;;;;;5073782;28;20693;-58
2022/11/02 00:48:32;;;;;;;5.57;2.97;;;8.00;99.90;;;;;;5074537;28;20224;-58
2022/11/02 00:50:59;;;;;;;5.50;2.63;;;8.00;99.90;;;;;;5074307;28;20220;-59
2022/11/02 00:53:26;;;;;;;5.70;3.03;;;8.00;99.90;;;;;;5074253;28;20700;-58
2022/11/02 00:55:53;;;;;;;8.77;2.87;;;8.10;99.90;;;;;;5073824;28;20200;-58
2022/11/02 00:58:20;;;;;;;7.50;3.03;;;8.10;99.90;;;;;;5074418;28;20200;-59
2022/11/02 01:00:48;;;;;;;4.83;2.67;;;8.10;99.90;;;;;;5074298;28;20224;-58
2022/11/02 01:03:15;;;;;;;5.53;2.83;;;8.10;99.90;;;;;;5073432;28;20298;-57
2022/11/02 01:05:42;;;;;;;4.30;2.50;;;8.20;99.90;;;;;;5073534;28;20575;-59
2022/11/02 01:08:08;;;;;;;3.67;2.27;;;8.20;99.90;;;;;;5073766;28;20209;-59
2022/11/02 01:10:35;;;;;;;5.57;2.90;;;8.30;99.90;;;;;;5074139;28;20229;-58
2022/11/02 01:13:02;;;;;;;6.50;3.00;;;8.30;99.90;;;;;;5073802;28;20201;-59
2022/11/02 01:15:29;;;;;;;3.60;2.40;;;8.30;99.90;;;;;;5073372;28;20212;-57
2022/11/02 01:17:57;;;;;;;4.77;2.77;;;8.30;99.90;;;;;;5073878;28;20216;-58
2022/11/02 01:20:23;;;;;;;5.07;2.40;;;8.30;99.90;;;;;;5073847;28;20228;-59
2022/11/02 01:22:50;;;;;;;4.17;2.40;;;8.30;99.90;;;;;;5074038;28;20300;-58
2022/11/02 01:25:17;;;;;;;5.63;2.80;;;8.30;99.90;;;;;;5073289;28;20212;-58
2022/11/02 01:27:44;;;;;;;9.23;2.63;;;8.40;99.90;;;;;;5073825;28;20201;-58
2022/11/02 01:30:12;;;;;;;4.67;2.60;;;8.40;99.90;;;;;;5096970;22;20609;-64
2022/11/02 01:32:38;;;;;;;4.03;2.40;;;8.40;99.90;;;;;;5062391;28;20209;-65
2022/11/02 01:35:07;;;;;;;5.50;2.67;;;8.40;99.90;;;;;;5070684;28;20201;-64
2022/11/02 01:37:34;;;;;;;3.57;2.70;;;8.50;99.90;;;;;;5074371;28;20212;-65
2022/11/02 01:40:01;;;;;;;6.17;2.50;;;8.50;99.90;;;;;;5074213;28;20200;-65
2022/11/02 01:42:28;;;;;;;5.30;2.50;;;8.60;99.90;;;;;;5074202;28;20564;-65
2022/11/02 01:44:55;;;;;;;6.27;3.03;;;8.60;99.90;;;;;;5073733;28;20209;-65
2022/11/02 01:47:26;;;;;;;5.47;2.70;;;8.70;99.90;;;;;;5073064;28;20672;-65
2022/11/02 01:49:57;;;;;;;6.73;2.43;;;8.80;99.90;;;;;;5073763;28;20270;-65
2022/11/02 01:52:28;;;;;;;4.97;2.53;;;8.80;99.90;;;;;;5073816;28;20228;-65
2022/11/02 01:55:00;;;;;;;5.20;2.20;;;9.00;99.90;;;;;;5073689;28;20205;-65
2022/11/02 01:57:29;;;;;;;4.33;2.20;;;9.00;99.90;;;;;;5073124;28;20672;-64
2022/11/02 02:00:04;;;;;;;3.20;2.20;;;9.00;99.90;;;;;;5074112;28;20227;-64
2022/11/02 02:02:32;;;;;;;4.47;2.10;;;9.10;99.90;;;;;;5073938;28;20204;-64
2022/11/02 02:05:03;;;;;;;7.77;2.63;;;9.20;99.90;;;;;;5073628;28;20216;-64
2022/11/02 02:07:33;;;;;;;5.07;2.10;;;9.30;99.90;;;;;;5073058;28;20205;-64
2022/11/02 02:10:00;;;;;;;5.47;2.30;;;9.30;99.90;;;;;;5073351;28;20704;-64
2022/11/02 02:12:28;;;;;;;4.80;2.03;;;9.40;99.90;;;;;;5073533;28;20205;-64
2022/11/02 02:14:55;;;;;;;4.57;2.23;;;9.40;99.90;;;;;;5073404;28;20212;-65
2022/11/02 02:17:32;;;;;;;6.83;2.30;;;9.50;99.90;;;;;;5072926;28;20208;-65
2022/11/02 02:20:03;;;;;;;6.40;2.10;;;9.60;99.90;;;;;;5073429;28;20669;-65
2022/11/02 02:23:03;;;;;;;4.47;2.03;;;9.80;99.90;;;;;;5073187;28;20216;-65
2022/11/02 02:26:11;;;;;;;8.73;2.00;;;10.10;99.90;;;;;;5072835;28;20882;-64
2022/11/02 02:28:44;;;;;;;7.00;2.20;;;10.40;99.90;;;;;;5047181;28;20365;-64
2022/11/02 02:31:17;;;;;;;4.13;2.13;;;10.60;99.90;;;;;;5072540;28;20679;-64
2022/11/02 02:33:53;;;;;;;8.23;2.30;;;10.70;99.90;;;;;;5072945;28;20216;-64
2022/11/02 02:36:24;;;;;;;6.50;2.00;;;10.80;99.90;;;;;;5072201;28;20569;-65
2022/11/02 02:38:59;;;;;;;6.33;1.90;;;10.80;99.90;;;;;;5073050;28;20205;-64
2022/11/02 02:41:37;;;;;;;7.20;1.87;;;11.00;99.90;;;;;;5072580;28;20231;-64
2022/11/02 02:44:09;;;;;;;7.03;2.10;;;11.00;99.90;;;;;;5073023;28;20240;-64
2022/11/02 02:46:40;;;;;;;6.73;2.03;;;11.20;99.90;;;;;;5072232;28;20676;-64
2022/11/02 02:49:11;;;;;;;5.73;2.03;;;11.20;99.90;;;;;;5072604;28;20224;-64
2022/11/02 02:51:40;;;;;;;3.37;1.73;;;11.20;99.90;;;;;;5072652;28;20220;-64
2022/11/02 02:54:10;;;;;;;5.00;1.73;;;11.20;99.90;;;;;;5072639;28;20209;-64
2022/11/02 02:56:40;;;;;;;5.53;2.00;;;11.20;99.90;;;;;;5071679;28;20208;-64
2022/11/02 02:59:16;;;;;;;6.53;1.80;;;11.20;99.90;;;;;;5072777;28;20205;-64
2022/11/02 03:01:44;;;;;;;6.67;1.80;;;11.20;99.90;;;;;;5072313;28;20224;-64
2022/11/02 03:04:12;;;;;;;4.10;1.60;;;11.20;99.90;;;;;;5072317;28;20625;-64
2022/11/02 03:06:41;;;;;;;5.53;1.67;;;11.10;99.90;;;;;;5071628;28;20205;-64
2022/11/02 03:09:18;;;;;;;4.93;1.47;;;11.20;99.90;;;;;;5072348;28;20247;-64
2022/11/02 03:11:51;;;;;;;5.30;1.50;;;11.10;99.90;;;;;;5073809;28;20853;-64
2022/11/02 03:14:31;;;;;;;4.83;2.23;;;11.20;99.90;;;;;;5073415;28;20204;-63
2022/11/02 03:17:11;;;;;;;4.53;1.80;;;11.30;99.90;;;;;;5073470;28;20243;-63
2022/11/02 03:19:47;;;;;;;3.97;1.73;;;11.30;99.90;;;;;;5073651;28;20205;-63
2022/11/02 03:22:22;;;;;;;3.80;1.80;;;11.30;99.90;;;;;;5073334;28;20224;-64
2022/11/02 03:24:55;;;;;;;3.20;1.60;;;11.20;99.90;;;;;;5073712;28;20208;-64
2022/11/02 03:27:29;;;;;;;9.13;2.10;;;11.30;99.90;;;;;;5073189;28;20691;-63
2022/11/02 03:30:04;;;;;;;6.03;1.67;;;11.30;99.90;;;;;;5073862;28;20644;-63
2022/11/02 03:32:38;;;;;;;9.60;1.97;;;11.30;99.90;;;;;;5074026;28;20205;-63
2022/11/02 03:35:14;;;;;;;4.23;1.70;;;11.30;99.90;;;;;;5072797;28;20208;-64
2022/11/02 03:37:46;;;;;;;4.13;2.10;;;11.20;99.90;;;;;;5071481;28;20208;-63
2022/11/02 03:40:18;;;;;;;4.57;2.10;;;11.10;99.90;;;;;;5071761;28;20216;-63
2022/11/02 03:42:46;;;;;;;6.77;2.27;;;11.10;99.90;;;;;;5071975;28;20211;-64
2022/11/02 03:45:16;;;;;;;8.63;2.30;;;11.10;99.90;;;;;;5071949;28;20216;-64
2022/11/02 03:47:47;;;;;;;3.77;2.13;;;11.20;99.90;;;;;;5072078;28;20212;-63
2022/11/02 03:50:19;;;;;;;4.53;2.17;;;11.20;99.90;;;;;;5071567;28;20633;-63
2022/11/02 03:52:48;;;;;;;3.83;2.00;;;11.20;99.90;;;;;;5071946;28;20694;-63
2022/11/02 03:55:19;;;;;;;8.17;2.33;;;11.20;99.90;;;;;;5071766;28;20676;-63
2022/11/02 03:57:47;;;;;;;6.33;1.90;;;11.30;99.90;;;;;;5071967;28;20216;-64
2022/11/02 04:00:18;;;;;;;3.20;1.80;;;11.30;99.90;;;;;;5071789;28;20295;-64
2022/11/02 04:02:48;;;;;;;5.30;2.10;;;11.20;99.90;;;;;;5071788;28;20204;-64
2022/11/02 04:05:16;;;;;;;4.50;2.00;;;11.20;99.90;;;;;;5071563;28;20208;-64
2022/11/02 04:10:30;;;;;;;5.57;2.10;;;11.20;99.90;;;;;;5072009;28;20232;-64
2022/11/02 04:15:51;;;;;;;5.13;2.00;;;11.20;99.90;;;;;;5047731;28;20246;-63
2022/11/02 04:21:02;;;;;;;8.57;2.47;;;11.40;99.90;;;;;;5072358;28;20211;-63
2022/11/02 04:26:13;;;;;;;3.50;1.67;;;11.60;99.90;;;;;;5070959;28;20204;-65
2022/11/02 04:28:40;;;;;;;3.47;1.70;;;11.60;99.90;;;;;;5072097;28;20205;-64
2022/11/02 04:31:11;;;;;;;6.60;1.40;;;11.70;99.90;;;;;;5072526;28;20236;-64
2022/11/02 04:33:37;;;;;;;7.00;1.50;;;11.80;99.90;;;;;;5072711;28;20240;-64
2022/11/02 04:36:06;;;;;;;5.17;1.47;;;11.90;99.90;;;;;;5071829;28;20236;-65
2022/11/02 04:38:41;;;;;;;7.60;1.60;;;11.90;99.90;;;;;;5074389;28;20205;-64
2022/11/02 04:43:54;;;;;;;8.10;1.93;;;11.90;99.90;;;;;;5075007;28;20203;-64
2022/11/02 04:46:23;;;;;;;3.73;1.50;;;12.00;99.90;;;;;;5074186;28;20216;-64
2022/11/02 04:48:50;;;;;;;3.60;1.50;;;12.10;99.90;;;;;;5074774;28;20250;-64
2022/11/02 04:51:17;;;;;;;8.67;1.90;;;12.10;99.90;;;;;;5075030;28;20229;-64
2022/11/02 04:53:44;;;;;;;5.03;1.53;;;12.10;99.90;;;;;;5075131;28;20213;-64
2022/11/02 04:56:11;;;;;;;7.00;2.80;;;12.10;99.90;;;;;;5074421;28;20205;-65
2022/11/02 04:58:37;;;;;;;4.90;2.23;;;12.00;99.90;;;;;;5074948;28;20211;-64
2022/11/02 05:01:06;;;;;;;9.33;2.33;;;12.00;99.90;;;;;;5074572;28;20221;-64
2022/11/02 05:03:34;;;;;;;5.53;2.10;;;12.00;99.90;;;;;;5074621;28;20269;-65
2022/11/02 05:06:01;;;;;;;4.93;1.60;;;12.00;99.90;;;;;;5074274;28;20212;-64
2022/11/02 05:08:28;;;;;;;4.63;1.53;;;11.90;99.90;;;;;;5074430;28;20205;-64
2022/11/02 05:10:55;;;;;;;10.50;2.10;;;11.90;99.90;;;;;;5074522;28;20232;-64
2022/11/02 05:13:22;;;;;;;4.03;1.87;;;11.90;99.90;;;;;;5074814;28;20205;-64
2022/11/02 05:15:49;;;;;;;5.07;1.93;;;11.90;99.90;;;;;;5073881;28;20209;-64
2022/11/02 05:18:16;;;;;;;6.03;1.60;;;11.90;99.90;;;;;;5074115;28;20205;-64
2022/11/02 05:20:50;;;;;;;9.60;1.90;;;11.80;99.90;;;;;;5074406;28;20229;-64
2022/11/02 05:23:17;;;;;;;8.07;2.30;;;11.80;99.90;;;;;;5074419;28;20219;-64
2022/11/02 05:25:52;;;;;;;5.60;1.73;;;11.80;99.90;;;;;;5073542;28;20211;-64
2022/11/02 05:28:19;;;;;;;2.77;1.53;;;11.80;99.90;;;;;;5074026;28;20258;-64
2022/11/02 05:30:45;;;;;;;5.27;1.67;;;11.90;99.90;;;;;;5073829;28;20228;-64
2022/11/02 05:33:12;;;;;;;6.83;1.87;;;11.70;99.90;;;;;;5074233;28;20201;-64
2022/11/02 05:35:39;;;;;;;5.27;1.30;;;11.80;99.90;;;;;;5073306;28;20208;-64
2022/11/02 05:38:07;;;;;;;4.23;1.67;;;11.80;99.90;;;;;;5074031;28;20213;-64
2022/11/02 05:40:36;;;;;;;7.17;2.17;;;11.80;99.90;;;;;;5073818;28;20225;-64
2022/11/02 05:43:04;;;;;;;8.70;1.83;;;11.80;99.90;;;;;;5073877;28;20299;-64
2022/11/02 05:45:31;;;;;;;5.43;1.80;;;11.90;99.90;;;;;;5073246;28;20228;-64
2022/11/02 05:48:00;;;;;;;6.70;1.50;;;11.80;99.90;;;;;;5073511;28;20209;-64
2022/11/02 05:50:27;;;;;;;6.13;2.63;;;11.90;99.90;;;;;;5073574;28;20224;-65
2022/11/02 05:52:54;;;;;;;3.23;1.67;;;11.80;99.90;;;;;;5073744;28;20209;-65
2022/11/02 05:55:23;;;;;;;8.80;3.40;;;11.90;99.90;;;;;;5073597;28;20216;-65
2022/11/02 05:57:51;;;;;;;3.47;1.70;;;11.90;99.90;;;;;;5072925;28;20213;-65
2022/11/02 06:00:18;;;;;;;6.00;2.17;;;12.00;99.90;;;;;;5073656;28;20254;-65
2022/11/02 06:02:44;;;;;;;5.27;1.93;;;12.00;99.90;;;;;;5073560;28;20216;-65
2022/11/02 06:05:11;;;;;;;3.80;1.50;;;12.00;99.90;;;;;;5073388;28;20201;-65
2022/11/02 06:07:38;;;;;;;3.53;2.07;;;12.10;99.90;;;;;;5072735;28;20205;-65
2022/11/02 06:10:06;;;;;;;9.80;1.80;;;12.20;99.90;;;;;;5072646;28;20247;-65
2022/11/02 06:12:34;;;;;;;6.53;2.00;;;12.30;99.90;;;;;;5073448;28;20347;-65
2022/11/02 06:15:01;;;;;;;6.50;2.37;;;12.40;99.90;;;;;;5073057;28;20669;-65
2022/11/02 06:17:27;;;;;;;9.03;2.27;;;12.50;99.90;;;;;;5072501;28;20231;-65
2022/11/02 06:19:54;;;;;;;5.07;1.40;;;12.50;99.90;;;;;;5073342;28;20212;-66
2022/11/02 06:22:21;;;;;;;3.33;1.40;;;12.60;99.90;;;;;;5072725;28;20591;-65
2022/11/02 06:24:47;;;;;;;5.43;1.97;;;12.70;99.90;;;;;;5073104;28;20209;-65
2022/11/02 06:27:14;;;;;;;4.33;1.87;;;12.90;99.90;;;;;;5072433;28;20212;-66
2022/11/02 06:29:42;;;;;;;4.67;1.63;;;13.00;99.90;;;;;;5073371;28;20572;-65
2022/11/02 06:32:09;;;;;;;6.57;1.90;;;13.20;99.90;;;;;;5073174;28;20229;-65
2022/11/02 06:34:35;;;;;;;4.73;2.00;;;13.20;99.90;;;;;;5073123;28;20669;-65
2022/11/02 06:37:02;;;;;;;8.53;2.07;;;13.30;99.90;;;;;;5072143;28;20205;-65
2022/11/02 06:39:29;;;;;;;2.93;1.40;;;13.50;99.90;;;;;;5072558;28;20636;-67
2022/11/02 06:41:56;;;;;;;5.13;1.87;;;13.50;99.90;;;;;;5072828;28;20229;-63
2022/11/02 06:44:22;;;;;;;9.50;4.07;;;13.50;99.90;;;;;;5072832;28;20726;-63
2022/11/02 06:46:51;;;;;;;6.03;3.50;;;13.50;99.90;;;;;;5072206;28;20205;-63
2022/11/02 06:49:17;;;;;;;4.30;1.57;;;13.60;99.90;;;;;;5072351;28;20695;-63
2022/11/02 06:51:44;;;;;;;9.47;2.17;;;13.70;99.90;;;;;;5072091;28;20225;-64
2022/11/02 06:54:11;;;;;;;11.10;1.90;;;13.80;99.90;;;;;;5072711;28;20204;-63
2022/11/02 06:56:38;;;;;;;5.00;1.67;;;14.00;99.90;;;;;;5071847;28;20207;-62
2022/11/02 06:59:04;;;;;;;7.33;2.10;;;14.20;99.90;;;;;;5072498;28;20232;-62
2022/11/02 07:01:31;;;;;;;7.77;1.83;;;14.30;99.90;;;;;;5071356;28;20239;-62
2022/11/02 07:03:59;;;;;;;5.37;1.80;;;14.50;99.90;;;;;;5072129;28;20224;-64
2022/11/02 07:06:27;;;;;;;4.03;2.00;;;14.60;99.90;;;;;;5071387;28;20213;-61
2022/11/02 07:08:54;;;;;;;4.37;1.60;;;14.70;99.90;;;;;;5072269;28;20284;-63
2022/11/02 07:11:20;;;;;;;6.00;2.33;;;14.70;99.90;;;;;;5072173;28;20237;-64
2022/11/02 07:13:48;;;;;;;4.57;1.80;;;14.70;99.90;;;;;;5072026;28;20208;-62
2022/11/02 07:16:15;;;;;;;5.40;1.83;;;14.80;99.90;;;;;;5071243;28;20291;-63
2022/11/02 07:18:42;;;;;;;4.77;2.17;;;14.90;99.90;;;;;;5071738;28;20599;-63
2022/11/02 07:21:11;;;;;;;5.47;2.23;;;14.70;99.90;;;;;;5072185;28;20748;-63
2022/11/02 07:23:38;;;;;;;4.77;2.00;;;14.60;99.90;;;;;;5072116;28;20250;-63
2022/11/02 07:26:05;;;;;;;5.63;2.10;;;14.50;99.90;;;;;;5071478;28;20327;-63
2022/11/02 07:28:31;;;;;;;5.73;2.67;;;14.50;99.90;;;;;;5071953;28;20205;-64
2022/11/02 07:30:58;;;;;;;6.07;1.97;;;14.60;99.90;;;;;;5072171;28;20609;-62
2022/11/02 07:33:25;;;;;;;4.40;1.90;;;14.60;99.90;;;;;;5072346;28;20227;-62
2022/11/02 07:35:51;;;;;;;4.70;1.90;;;14.50;99.90;;;;;;5072012;28;20213;-63
2022/11/02 07:38:19;;;;;;;7.73;2.73;;;14.40;99.90;;;;;;5072503;28;20205;-63
2022/11/02 07:40:49;;;;;;;5.90;2.07;;;14.50;99.90;;;;;;5072708;28;20331;-63
2022/11/02 07:43:16;;;;;;;6.67;2.53;;;14.60;99.90;;;;;;5072256;28;20240;-63
2022/11/02 07:45:43;;;;;;;5.60;2.23;;;14.70;99.90;;;;;;5071485;28;20296;-63
2022/11/02 07:48:09;;;;;;;10.33;2.67;;;14.90;99.90;;;;;;5071900;28;20244;-66
2022/11/02 07:50:36;;;;;;;7.13;2.57;;;15.00;99.90;;;;;;5071693;28;20224;-63
2022/11/02 07:53:03;;;;;;;5.27;2.40;;;15.00;99.90;;;;;;5071505;28;20204;-63
2022/11/02 07:55:31;;;;;;;4.30;2.33;;;15.10;99.90;;;;;;5071921;28;20220;-63
2022/11/02 07:58:00;;;;;;;8.67;2.20;;;15.10;99.90;;;;;;5071422;28;20205;-62
2022/11/02 08:00:29;;;;;;;6.60;2.10;;;15.20;99.90;;;;;;5072562;28;20221;-62
2022/11/02 08:02:56;;;;;;;8.07;2.70;;;15.20;99.90;;;;;;5071526;28;20212;-63
2022/11/02 08:05:23;;;;;;;9.87;2.90;;;15.40;99.90;;;;;;5071725;28;20215;-63
2022/11/02 08:07:57;;;;;;;3.77;2.00;;;15.50;99.90;;;;;;5070779;28;20212;-63
2022/11/02 08:10:24;;;;;;;10.00;2.83;;;15.60;99.90;;;;;;5071361;28;20630;-63
2022/11/02 08:12:53;;;;;;;6.90;2.53;;;15.70;99.90;;;;;;5075140;28;20211;-63
2022/11/02 08:15:19;;;;;;;6.70;2.70;;;15.80;99.90;;;;;;5075604;28;20219;-62
2022/11/02 08:17:46;;;;;;;6.67;2.93;;;16.00;99.90;;;;;;5075088;28;20650;-62
2022/11/02 08:20:13;;;;;;;9.20;2.53;;;16.20;99.90;;;;;;5075259;28;20209;-63
2022/11/02 08:22:40;;;;;;;7.07;2.40;;;16.30;99.90;;;;;;5074960;28;20687;-63
2022/11/02 08:25:08;;;;;;;6.88;2.83;;;16.60;99.90;;;;;;5075233;28;20208;-63
2022/11/02 08:27:34;;;;;;;7.53;2.72;;;16.90;99.90;;;;;;5074437;28;20201;-64
2022/11/02 08:30:03;;;;;;;10.82;2.88;;;17.20;99.90;;;;;;5075482;28;20216;-63
2022/11/02 08:32:30;;;;;;;11.65;2.70;;;17.30;99.90;;;;;;5074922;28;20225;-64
2022/11/02 08:34:56;;;;;;;5.93;2.08;;;17.40;99.90;;;;;;5074855;28;20833;-63
2022/11/02 08:37:23;;;;;;;6.90;1.83;;;17.50;99.90;;;;;;5074274;28;20208;-63
2022/11/02 08:39:50;;;;;;;5.43;1.83;;;17.50;99.90;;;;;;5074634;28;20204;-62
2022/11/02 08:42:16;;;;;;;8.25;2.30;;;17.60;99.90;;;;;;5074655;28;20229;-63
2022/11/02 08:44:43;;;;;;;9.88;3.00;;;17.70;99.90;;;;;;5074873;28;20201;-63
2022/11/02 08:47:11;;;;;;;5.60;2.30;;;17.80;99.90;;;;;;5074300;28;20216;-63
2022/11/02 08:49:38;;;;;;;6.93;2.00;;;17.90;99.90;;;;;;5074758;28;20200;-64
2022/11/02 08:52:05;;;;;;;7.35;1.90;;;18.00;99.90;;;;;;5074579;28;20235;-62
2022/11/02 08:54:32;;;;;;;6.75;2.00;;;18.10;99.90;;;;;;5074737;28;20215;-64
2022/11/02 08:56:58;;;;;;;9.95;2.33;;;18.20;99.90;;;;;;5073766;28;20212;-62
2022/11/02 08:59:25;;;;;;;8.52;2.25;;;18.20;99.90;;;;;;5074479;28;20208;-63
2022/11/02 09:01:52;;;;;;;9.65;2.30;;;18.20;99.90;;;;;;5074533;28;20228;-63
2022/11/02 09:04:20;;;;;;;8.13;2.25;;;18.20;99.90;;;;;;5074222;28;20216;-62
2022/11/02 09:06:47;;;;;;;5.07;2.00;;;18.30;99.90;;;;;;5073615;28;20205;-63
2022/11/02 09:09:13;;;;;;;6.93;1.85;;;18.30;99.90;;;;;;5074114;28;20204;-63
2022/11/02 09:11:40;;;;;;;6.82;2.25;;;18.40;99.90;;;;;;5074098;28;20233;-63
2022/11/02 09:14:07;;;;;;;6.28;2.00;;;18.30;99.90;;;;;;5074049;28;20209;-62
2022/11/02 09:16:34;;;;;;;6.65;2.10;;;18.30;99.90;;;;;;5073526;28;20236;-63
2022/11/02 09:19:00;;;;;;;6.05;2.15;;;18.40;99.90;;;;;;5074154;28;20216;-63
2022/11/02 09:21:28;;;;;;;40.70;6.22;;;18.40;99.90;;;;;;5074062;28;20251;-63
2022/11/02 09:23:55;;;;;;;10.88;3.67;;;18.40;99.90;;;;;;5073160;28;20205;-62
2022/11/02 09:26:22;;;;;;;18.45;2.70;;;18.40;99.90;;;;;;5073609;28;20201;-64
2022/11/02 09:28:48;;;;;;;8.27;2.17;;;18.40;99.90;;;;;;5076968;28;20691;-63
2022/11/02 09:31:15;;;;;;;7.95;2.30;;;18.50;99.90;;;;;;5078523;28;20252;-63
2022/11/02 09:33:42;;;;;;;6.93;1.73;;;18.50;99.90;;;;;;5075257;28;20205;-63
2022/11/02 09:36:09;;;;;;;6.15;1.90;;;18.50;99.90;;;;;;5074352;28;20216;-64
2022/11/02 09:38:37;;;;;;;7.57;2.13;;;18.50;99.90;;;;;;5075504;28;20216;-63
2022/11/02 09:41:19;;;;;;;6.15;2.10;;;18.60;99.90;;;;;;5074356;28;20225;-63
2022/11/02 09:43:57;;;;;;;6.13;2.20;;;18.70;99.90;;;;;;5074119;28;20201;-64
2022/11/02 09:46:26;;;;;;;4.78;1.60;;;18.90;99.90;;;;;;5073525;28;20216;-63
2022/11/02 09:48:56;;;;;;;5.10;2.00;;;18.90;99.90;;;;;;5073876;28;20215;-63
2022/11/02 09:51:26;;;;;;;7.65;1.95;;;18.90;99.90;;;;;;5074002;28;20263;-63
2022/11/02 09:54:00;;;;;;;9.82;2.65;;;19.00;99.90;;;;;;5073842;28;20201;-63
2022/11/02 09:56:29;;;;;;;6.70;2.10;;;19.00;99.90;;;;;;5072900;28;20588;-63
2022/11/02 09:59:00;;;;;;;9.93;2.00;;;19.00;99.90;;;;;;5073339;28;20208;-63
2022/11/02 10:01:41;;;;;;;7.60;1.90;;;19.00;99.90;;;;;;5073141;28;20229;-63
2022/11/02 10:04:29;;;;;;;7.75;2.10;;;19.10;99.90;;;;;;5073516;28;20205;-62
2022/11/02 10:07:10;;;;;;;9.90;1.90;;;19.20;99.90;;;;;;5072604;28;20205;-63
2022/11/02 10:09:49;;;;;;;6.85;2.33;;;19.20;99.90;;;;;;5073222;28;20233;-63
2022/11/02 10:12:23;;;;;;;8.02;2.20;;;19.30;99.90;;;;;;5072981;28;20704;-62
2022/11/02 10:14:59;;;;;;;6.13;1.77;;;19.40;99.90;;;;;;5072923;28;20687;-62
2022/11/02 10:17:28;;;;;;;8.73;2.10;;;19.40;99.90;;;;;;5072754;28;20204;-63
2022/11/02 10:19:57;;;;;;;13.63;2.30;;;19.40;99.90;;;;;;5073271;28;20209;-66
2022/11/02 10:22:31;;;;;;;11.57;4.70;;;19.30;99.90;;;;;;5073170;28;20221;-64
2022/11/02 10:25:03;;;;;;;5.75;1.92;;;19.30;99.90;;;;;;5073822;28;20215;-63
2022/11/02 10:27:36;;;;;;;7.20;1.67;;;19.30;99.90;;;;;;5073187;28;20220;-62
2022/11/02 10:30:05;;;;;;;7.50;1.98;;;19.30;99.90;;;;;;5073319;28;20209;-64
2022/11/02 10:32:34;;;;;;;8.10;2.13;;;19.30;99.90;;;;;;5073010;28;20228;-65
2022/11/02 10:35:03;;;;;;;5.97;1.65;;;19.40;99.90;;;;;;5072161;28;20205;-62
2022/11/02 10:37:44;;;;;;;4.72;1.63;;;19.40;99.90;;;;;;5072480;28;20211;-65
2022/11/02 10:40:32;;;;;;;4.70;1.88;;;19.30;99.90;;;;;;5073232;28;20585;-63
2022/11/02 10:43:12;;;;;;;8.60;2.45;;;19.40;99.90;;;;;;5072744;28;20197;-63
2022/11/02 10:45:55;;;;;;;8.43;2.00;;;19.40;99.90;;;;;;5072737;28;20212;-64
2022/11/02 10:48:32;;;;;;;8.25;1.90;;;19.40;99.90;;;;;;5072145;28;20208;-64
2022/11/02 10:51:07;;;;;;;5.25;1.60;;;19.40;99.90;;;;;;5072676;28;20236;-64
2022/11/02 10:53:36;;;;;;;6.63;2.10;;;19.40;99.90;;;;;;5072712;28;20220;-62
2022/11/02 10:56:19;;;;;;;7.82;2.00;;;19.20;99.90;;;;;;5072331;28;20239;-63
2022/11/02 10:58:52;;;;;;;11.43;2.55;;;19.00;99.90;;;;;;5072477;28;20742;-63
2022/11/02 11:01:19;;;;;;;6.78;2.15;;;18.90;99.90;;;;;;5072548;28;20221;-62
2022/11/02 11:03:54;;;;;;;7.60;2.10;;;18.80;99.90;;;;;;5072553;28;20209;-63
2022/11/02 11:06:22;;;;;;;4.38;1.73;;;18.50;99.90;;;;;;5071536;28;20214;-63
2022/11/02 11:08:50;;;;;;;11.52;2.10;;;18.30;99.90;;;;;;5072156;28;20201;-64
2022/11/02 11:11:25;;;;;;;6.20;1.90;;;18.30;99.90;;;;;;5072610;28;20235;-62
2022/11/02 11:13:58;;;;;;;11.68;2.70;;;18.30;99.90;;;;;;5075547;28;20286;-63
2022/11/02 11:16:41;;;;;;;7.18;2.05;;;18.20;99.90;;;;;;5074574;28;20258;-63
2022/11/02 11:19:19;;;;;;;6.97;2.20;;;18.20;99.90;;;;;;5075493;28;20208;-63
2022/11/02 11:21:48;;;;;;;7.07;2.10;;;17.90;99.90;;;;;;5075512;28;20228;-63
2022/11/02 11:24:26;;;;;;;9.25;2.13;;;17.80;99.90;;;;;;5072368;28;20408;-62
2022/11/02 11:27:13;;;;;;;8.88;2.40;;;17.80;99.90;;;;;;5071319;28;20212;-62
2022/11/02 11:29:45;;;;;;;9.75;2.30;;;17.80;99.90;;;;;;5072251;28;20296;-63
2022/11/02 11:32:15;;;;;;;7.28;1.73;;;17.50;99.90;;;;;;5072195;28;20232;-62
2022/11/02 11:34:46;;;;;;;9.70;2.20;;;17.50;99.90;;;;;;5072434;28;20211;-62
2022/11/02 11:37:16;;;;;;;8.05;2.03;;;17.40;99.90;;;;;;5071375;28;20540;-63
2022/11/02 11:39:45;;;;;;;7.95;2.10;;;17.20;99.90;;;;;;5072152;28;20687;-61
2022/11/02 11:42:20;;;;;;;8.98;2.20;;;17.10;99.90;;;;;;5071817;28;20721;-63
2022/11/02 11:44:55;;;;;;;7.80;2.10;;;17.10;99.90;;;;;;5072040;28;20231;-63
2022/11/02 11:47:27;;;;;;;8.27;2.00;;;17.40;99.90;;;;;;5074101;28;20208;-64
2022/11/02 11:49:55;;;;;;;8.77;2.05;;;17.80;99.90;;;;;;5076020;28;20622;-63
2022/11/02 11:52:26;;;;;;;5.70;2.10;;;18.00;99.90;;;;;;5076287;28;20272;-64
2022/11/02 11:54:55;;;;;;;6.90;2.63;;;18.00;99.90;;;;;;5075906;28;20216;-62
2022/11/02 11:57:27;;;;;;;7.47;1.92;;;18.00;99.90;;;;;;5075299;28;20200;-62
2022/11/02 11:59:57;;;;;;;8.32;2.03;;;18.10;99.90;;;;;;5076164;28;20232;-63
2022/11/02 12:02:25;;;;;;;7.45;2.22;;;18.10;99.90;;;;;;5075573;28;20311;-63
2022/11/02 12:05:00;;;;;;;7.90;2.15;;;18.10;99.90;;;;;;5075526;28;20691;-63
2022/11/02 12:08:04;;;;;;;6.18;1.90;;;18.10;99.90;;;;;;5074730;28;20664;-63
2022/11/02 12:10:46;;;;;;;7.78;2.00;;;18.10;99.90;;;;;;5075224;28;20228;-62
2022/11/02 12:13:27;;;;;;;6.80;2.17;;;18.10;99.90;;;;;;5075666;28;20228;-61
2022/11/02 12:16:06;;;;;;;5.28;1.58;;;18.00;99.90;;;;;;5075125;28;20208;-62
2022/11/02 12:18:45;;;;;;;6.25;1.95;;;17.90;99.90;;;;;;5074412;28;20216;-62
2022/11/02 12:21:26;;;;;;;5.63;1.80;;;17.80;99.90;;;;;;5075284;28;20232;-62
2022/11/02 12:24:26;;;;;;;8.18;2.03;;;17.90;99.90;;;;;;5075045;28;20688;-62
2022/11/02 12:27:07;;;;;;;11.35;2.92;;;17.90;99.90;;;;;;5050429;28;20205;-62
2022/11/02 12:29:54;;;;;;;5.40;2.08;;;17.70;99.90;;;;;;5075128;28;20216;-62
2022/11/02 12:32:36;;;;;;;7.22;1.88;;;17.70;99.90;;;;;;5074679;28;20233;-62
2022/11/02 12:35:16;;;;;;;5.78;1.83;;;17.60;99.90;;;;;;5075089;28;20209;-63
2022/11/02 12:37:56;;;;;;;10.50;2.28;;;17.60;99.90;;;;;;5074270;28;20579;-64
2022/11/02 12:40:30;;;;;;;6.85;2.03;;;17.60;99.90;;;;;;5076175;28;20224;-62
2022/11/02 12:43:11;;;;;;;7.70;2.30;;;17.50;99.90;;;;;;5076458;28;20204;-62
2022/11/02 12:45:48;;;;;;;8.77;2.05;;;17.30;99.90;;;;;;5076276;28;20200;-61
2022/11/02 12:48:21;;;;;;;7.30;1.70;;;17.30;99.90;;;;;;5074941;28;20212;-61
2022/11/02 12:50:57;;;;;;;8.48;2.00;;;17.20;99.90;;;;;;5074921;28;20233;-62
2022/11/02 12:53:36;;;;;;;7.88;2.60;;;17.10;99.90;;;;;;5074691;28;20227;-62
2022/11/02 12:56:07;;;;;;;8.77;2.38;;;17.40;99.90;;;;;;5074901;28;20205;-63
2022/11/02 12:58:37;;;;;;;8.73;1.42;;;17.70;99.90;;;;;;5073522;28;20213;-63
2022/11/02 13:01:13;;;;;;;6.25;1.67;;;17.80;99.90;;;;;;5074746;28;20221;-63
2022/11/02 13:03:47;;;;;;;5.28;1.90;;;18.00;99.90;;;;;;5074524;28;20211;-63
2022/11/02 13:06:19;;;;;;;8.95;1.90;;;18.10;99.90;;;;;;5074111;28;20200;-64
2022/11/02 13:08:52;;;;;;;6.80;1.80;;;18.20;99.90;;;;;;5074269;28;20212;-63
2022/11/02 13:11:23;;;;;;;7.03;1.83;;;18.30;99.90;;;;;;5074249;28;20716;-62
2022/11/02 13:13:54;;;;;;;9.10;2.08;;;18.30;99.90;;;;;;5074448;28;20600;-63
2022/11/02 13:16:38;;;;;;;7.60;1.85;;;18.30;99.90;;;;;;5073598;28;20216;-63
2022/11/02 13:19:11;;;;;;;10.25;2.00;;;18.20;99.90;;;;;;5074248;28;20208;-63